sensor_id;sensor_type;location;lat;lon;timestamp;P1;durP1;ratioP1;P2;durP2;ratioP2
31424;SDS011;18054;51.572;7.372;2023-05-07T00:02:34;37.78;;;25.10;;
31424;SDS011;18054;51.572;7.372;2023-05-07T00:05:03;34.33;;;23.67;;
31424;SDS011;18054;51.572;7.372;2023-05-07T00:09:58;32.67;;;23.63;;
31424;SDS011;18054;51.572;7.372;2023-05-07T00:12:26;39.45;;;25.35;;
31424;SDS011;18054;51.572;7.372;2023-05-07T00:14:53;43.88;;;25.90;;
31424;SDS011;18054;51.572;7.372;2023-05-07T00:17:21;43.40;;;25.70;;
31424;SDS011;18054;51.572;7.372;2023-05-07T00:19:49;53.47;;;28.17;;
31424;SDS011;18054;51.572;7.372;2023-05-07T00:22:17;31.73;;;22.92;;
31424;SDS011;18054;51.572;7.372;2023-05-07T00:24:44;61.38;;;29.67;;
31424;SDS011;18054;51.572;7.372;2023-05-07T00:27:11;42.95;;;26.13;;
31424;SDS011;18054;51.572;7.372;2023-05-07T00:29:39;29.10;;;23.17;;
31424;SDS011;18054;51.572;7.372;2023-05-07T00:32:06;46.83;;;27.27;;
31424;SDS011;18054;51.572;7.372;2023-05-07T00:34:34;37.10;;;25.90;;
31424;SDS011;18054;51.572;7.372;2023-05-07T00:37:03;44.40;;;27.13;;
31424;SDS011;18054;51.572;7.372;2023-05-07T00:39:32;60.30;;;29.65;;
31424;SDS011;18054;51.572;7.372;2023-05-07T00:41:59;40.25;;;26.75;;
31424;SDS011;18054;51.572;7.372;2023-05-07T00:44:27;62.58;;;32.45;;
31424;SDS011;18054;51.572;7.372;2023-05-07T00:46:55;62.22;;;31.58;;
31424;SDS011;18054;51.572;7.372;2023-05-07T00:49:24;61.38;;;32.80;;
31424;SDS011;18054;51.572;7.372;2023-05-07T00:51:54;72.10;;;33.47;;
31424;SDS011;18054;51.572;7.372;2023-05-07T00:54:23;42.35;;;24.92;;
31424;SDS011;18054;51.572;7.372;2023-05-07T00:56:51;39.70;;;27.85;;
31424;SDS011;18054;51.572;7.372;2023-05-07T00:59:19;72.10;;;31.92;;
31424;SDS011;18054;51.572;7.372;2023-05-07T01:01:46;45.47;;;28.73;;
31424;SDS011;18054;51.572;7.372;2023-05-07T01:04:14;37.85;;;27.17;;
31424;SDS011;18054;51.572;7.372;2023-05-07T01:07:06;67.93;;;31.98;;
31424;SDS011;18054;51.572;7.372;2023-05-07T01:09:35;41.20;;;27.05;;
31424;SDS011;18054;51.572;7.372;2023-05-07T01:12:03;61.00;;;30.48;;
31424;SDS011;18054;51.572;7.372;2023-05-07T01:14:31;72.55;;;33.63;;
31424;SDS011;18054;51.572;7.372;2023-05-07T01:16:59;49.08;;;28.67;;
31424;SDS011;18054;51.572;7.372;2023-05-07T01:21:54;66.65;;;31.52;;
31424;SDS011;18054;51.572;7.372;2023-05-07T01:24:25;34.20;;;25.08;;
31424;SDS011;18054;51.572;7.372;2023-05-07T01:26:53;82.95;;;35.47;;
31424;SDS011;18054;51.572;7.372;2023-05-07T01:29:20;62.17;;;32.00;;
31424;SDS011;18054;51.572;7.372;2023-05-07T01:31:48;36.97;;;26.35;;
31424;SDS011;18054;51.572;7.372;2023-05-07T01:34:17;41.08;;;26.13;;
31424;SDS011;18054;51.572;7.372;2023-05-07T01:36:46;70.03;;;33.55;;
31424;SDS011;18054;51.572;7.372;2023-05-07T01:39:14;51.95;;;28.77;;
31424;SDS011;18054;51.572;7.372;2023-05-07T01:44:14;56.78;;;29.13;;
31424;SDS011;18054;51.572;7.372;2023-05-07T01:46:41;61.55;;;32.67;;
31424;SDS011;18054;51.572;7.372;2023-05-07T01:49:09;52.15;;;30.40;;
31424;SDS011;18054;51.572;7.372;2023-05-07T01:51:36;46.45;;;28.70;;
31424;SDS011;18054;51.572;7.372;2023-05-07T01:54:04;47.10;;;29.23;;
31424;SDS011;18054;51.572;7.372;2023-05-07T01:56:32;40.05;;;27.48;;
31424;SDS011;18054;51.572;7.372;2023-05-07T01:59:01;62.45;;;31.60;;
31424;SDS011;18054;51.572;7.372;2023-05-07T02:01:29;41.63;;;25.17;;
31424;SDS011;18054;51.572;7.372;2023-05-07T02:03:57;40.63;;;26.73;;
31424;SDS011;18054;51.572;7.372;2023-05-07T02:06:27;38.75;;;26.45;;
31424;SDS011;18054;51.572;7.372;2023-05-07T02:09:00;43.35;;;27.83;;
31424;SDS011;18054;51.572;7.372;2023-05-07T02:11:28;39.38;;;25.00;;
31424;SDS011;18054;51.572;7.372;2023-05-07T02:13:55;48.45;;;28.70;;
31424;SDS011;18054;51.572;7.372;2023-05-07T02:16:23;34.60;;;24.02;;
31424;SDS011;18054;51.572;7.372;2023-05-07T02:18:52;39.72;;;26.17;;
31424;SDS011;18054;51.572;7.372;2023-05-07T02:21:20;56.40;;;30.05;;
31424;SDS011;18054;51.572;7.372;2023-05-07T02:23:47;39.38;;;25.52;;
31424;SDS011;18054;51.572;7.372;2023-05-07T02:26:15;63.83;;;33.75;;
31424;SDS011;18054;51.572;7.372;2023-05-07T02:28:42;31.85;;;23.23;;
31424;SDS011;18054;51.572;7.372;2023-05-07T02:31:10;70.50;;;32.25;;
31424;SDS011;18054;51.572;7.372;2023-05-07T02:33:37;64.43;;;31.30;;
31424;SDS011;18054;51.572;7.372;2023-05-07T02:36:09;43.67;;;26.38;;
31424;SDS011;18054;51.572;7.372;2023-05-07T02:38:46;40.63;;;26.25;;
31424;SDS011;18054;51.572;7.372;2023-05-07T02:41:13;63.60;;;32.13;;
31424;SDS011;18054;51.572;7.372;2023-05-07T02:43:41;52.30;;;29.85;;
31424;SDS011;18054;51.572;7.372;2023-05-07T02:46:09;63.10;;;31.75;;
31424;SDS011;18054;51.572;7.372;2023-05-07T02:48:41;65.30;;;31.80;;
31424;SDS011;18054;51.572;7.372;2023-05-07T02:51:10;53.05;;;28.05;;
31424;SDS011;18054;51.572;7.372;2023-05-07T02:53:40;70.32;;;32.83;;
31424;SDS011;18054;51.572;7.372;2023-05-07T02:56:07;51.45;;;28.23;;
31424;SDS011;18054;51.572;7.372;2023-05-07T02:58:35;34.13;;;24.23;;
31424;SDS011;18054;51.572;7.372;2023-05-07T03:01:03;44.17;;;26.15;;
31424;SDS011;18054;51.572;7.372;2023-05-07T03:03:38;66.15;;;31.55;;
31424;SDS011;18054;51.572;7.372;2023-05-07T03:06:05;39.40;;;24.95;;
31424;SDS011;18054;51.572;7.372;2023-05-07T03:11:02;53.72;;;28.33;;
31424;SDS011;18054;51.572;7.372;2023-05-07T03:13:29;49.90;;;27.80;;
31424;SDS011;18054;51.572;7.372;2023-05-07T03:15:57;87.00;;;33.53;;
31424;SDS011;18054;51.572;7.372;2023-05-07T03:18:24;98.13;;;33.03;;
31424;SDS011;18054;51.572;7.372;2023-05-07T03:20:53;70.88;;;31.50;;
31424;SDS011;18054;51.572;7.372;2023-05-07T03:23:20;41.15;;;24.98;;
31424;SDS011;18054;51.572;7.372;2023-05-07T03:25:50;67.40;;;31.17;;
31424;SDS011;18054;51.572;7.372;2023-05-07T03:28:19;38.13;;;25.13;;
31424;SDS011;18054;51.572;7.372;2023-05-07T03:30:52;89.50;;;35.22;;
31424;SDS011;18054;51.572;7.372;2023-05-07T03:33:19;52.05;;;26.58;;
31424;SDS011;18054;51.572;7.372;2023-05-07T03:35:47;43.65;;;26.17;;
31424;SDS011;18054;51.572;7.372;2023-05-07T03:38:19;48.28;;;25.50;;
31424;SDS011;18054;51.572;7.372;2023-05-07T03:45:48;32.13;;;22.40;;
31424;SDS011;18054;51.572;7.372;2023-05-07T03:48:20;51.78;;;28.15;;
31424;SDS011;18054;51.572;7.372;2023-05-07T03:50:50;41.83;;;24.95;;
31424;SDS011;18054;51.572;7.372;2023-05-07T03:53:19;77.90;;;30.33;;
31424;SDS011;18054;51.572;7.372;2023-05-07T03:55:47;57.38;;;29.00;;
31424;SDS011;18054;51.572;7.372;2023-05-07T03:58:14;48.47;;;27.38;;
31424;SDS011;18054;51.572;7.372;2023-05-07T04:00:42;38.85;;;24.52;;
31424;SDS011;18054;51.572;7.372;2023-05-07T04:08:16;35.20;;;23.02;;
31424;SDS011;18054;51.572;7.372;2023-05-07T04:10:48;49.25;;;26.10;;
31424;SDS011;18054;51.572;7.372;2023-05-07T04:13:15;43.70;;;24.27;;
31424;SDS011;18054;51.572;7.372;2023-05-07T04:15:43;59.78;;;27.65;;
31424;SDS011;18054;51.572;7.372;2023-05-07T04:18:14;40.92;;;23.27;;
31424;SDS011;18054;51.572;7.372;2023-05-07T04:20:43;40.97;;;24.98;;
31424;SDS011;18054;51.572;7.372;2023-05-07T04:23:13;46.97;;;26.70;;
31424;SDS011;18054;51.572;7.372;2023-05-07T04:25:42;34.85;;;22.42;;
31424;SDS011;18054;51.572;7.372;2023-05-07T04:28:18;40.85;;;23.45;;
31424;SDS011;18054;51.572;7.372;2023-05-07T04:30:46;49.90;;;26.58;;
31424;SDS011;18054;51.572;7.372;2023-05-07T04:33:13;60.20;;;28.88;;
31424;SDS011;18054;51.572;7.372;2023-05-07T04:35:43;57.65;;;27.88;;
31424;SDS011;18054;51.572;7.372;2023-05-07T04:38:10;63.30;;;28.88;;
31424;SDS011;18054;51.572;7.372;2023-05-07T04:40:38;35.50;;;22.10;;
31424;SDS011;18054;51.572;7.372;2023-05-07T04:43:09;40.20;;;22.73;;
31424;SDS011;18054;51.572;7.372;2023-05-07T04:45:43;43.13;;;23.02;;
31424;SDS011;18054;51.572;7.372;2023-05-07T04:48:11;51.28;;;24.67;;
31424;SDS011;18054;51.572;7.372;2023-05-07T04:50:40;29.27;;;19.15;;
31424;SDS011;18054;51.572;7.372;2023-05-07T04:53:08;44.28;;;22.35;;
31424;SDS011;18054;51.572;7.372;2023-05-07T04:55:36;32.45;;;18.80;;
31424;SDS011;18054;51.572;7.372;2023-05-07T04:58:04;55.83;;;25.80;;
31424;SDS011;18054;51.572;7.372;2023-05-07T05:00:35;28.83;;;19.38;;
31424;SDS011;18054;51.572;7.372;2023-05-07T05:03:05;26.80;;;19.23;;
31424;SDS011;18054;51.572;7.372;2023-05-07T05:05:35;24.67;;;17.17;;
31424;SDS011;18054;51.572;7.372;2023-05-07T05:08:02;26.33;;;17.23;;
31424;SDS011;18054;51.572;7.372;2023-05-07T05:10:30;44.35;;;21.13;;
31424;SDS011;18054;51.572;7.372;2023-05-07T05:12:58;23.88;;;13.57;;
31424;SDS011;18054;51.572;7.372;2023-05-07T05:15:26;25.92;;;15.18;;
31424;SDS011;18054;51.572;7.372;2023-05-07T05:17:55;31.15;;;16.17;;
31424;SDS011;18054;51.572;7.372;2023-05-07T05:20:23;21.35;;;13.32;;
31424;SDS011;18054;51.572;7.372;2023-05-07T05:22:51;17.75;;;12.68;;
31424;SDS011;18054;51.572;7.372;2023-05-07T05:25:18;25.67;;;14.75;;
31424;SDS011;18054;51.572;7.372;2023-05-07T05:27:45;24.33;;;13.55;;
31424;SDS011;18054;51.572;7.372;2023-05-07T05:32:44;18.63;;;12.23;;
31424;SDS011;18054;51.572;7.372;2023-05-07T05:35:13;19.60;;;12.18;;
31424;SDS011;18054;51.572;7.372;2023-05-07T05:37:42;18.85;;;13.27;;
31424;SDS011;18054;51.572;7.372;2023-05-07T05:40:09;21.80;;;13.68;;
31424;SDS011;18054;51.572;7.372;2023-05-07T05:42:37;21.17;;;12.75;;
31424;SDS011;18054;51.572;7.372;2023-05-07T05:45:06;18.70;;;12.45;;
31424;SDS011;18054;51.572;7.372;2023-05-07T05:47:34;22.48;;;12.30;;
31424;SDS011;18054;51.572;7.372;2023-05-07T05:50:01;20.35;;;11.27;;
31424;SDS011;18054;51.572;7.372;2023-05-07T05:52:30;19.52;;;11.50;;
31424;SDS011;18054;51.572;7.372;2023-05-07T05:54:57;16.73;;;10.95;;
31424;SDS011;18054;51.572;7.372;2023-05-07T05:57:25;16.25;;;10.63;;
31424;SDS011;18054;51.572;7.372;2023-05-07T05:59:54;18.95;;;10.52;;
31424;SDS011;18054;51.572;7.372;2023-05-07T06:02:23;14.60;;;10.00;;
31424;SDS011;18054;51.572;7.372;2023-05-07T06:07:20;20.40;;;9.98;;
31424;SDS011;18054;51.572;7.372;2023-05-07T06:12:17;13.82;;;9.68;;
31424;SDS011;18054;51.572;7.372;2023-05-07T06:14:46;15.32;;;10.25;;
31424;SDS011;18054;51.572;7.372;2023-05-07T06:17:14;14.35;;;8.88;;
31424;SDS011;18054;51.572;7.372;2023-05-07T06:19:45;13.57;;;8.65;;
31424;SDS011;18054;51.572;7.372;2023-05-07T06:22:16;13.75;;;9.30;;
31424;SDS011;18054;51.572;7.372;2023-05-07T06:24:44;19.90;;;9.77;;
31424;SDS011;18054;51.572;7.372;2023-05-07T06:27:12;17.55;;;9.50;;
31424;SDS011;18054;51.572;7.372;2023-05-07T06:29:41;15.27;;;9.80;;
31424;SDS011;18054;51.572;7.372;2023-05-07T06:32:13;15.60;;;9.02;;
31424;SDS011;18054;51.572;7.372;2023-05-07T06:34:42;10.90;;;8.30;;
31424;SDS011;18054;51.572;7.372;2023-05-07T06:37:11;15.48;;;8.60;;
31424;SDS011;18054;51.572;7.372;2023-05-07T06:39:49;12.63;;;8.27;;
31424;SDS011;18054;51.572;7.372;2023-05-07T06:42:16;14.75;;;8.98;;
31424;SDS011;18054;51.572;7.372;2023-05-07T06:44:47;18.17;;;7.97;;
31424;SDS011;18054;51.572;7.372;2023-05-07T06:47:16;12.52;;;7.95;;
31424;SDS011;18054;51.572;7.372;2023-05-07T06:49:48;11.48;;;8.68;;
31424;SDS011;18054;51.572;7.372;2023-05-07T06:52:18;17.27;;;8.93;;
31424;SDS011;18054;51.572;7.372;2023-05-07T06:54:48;18.08;;;8.07;;
31424;SDS011;18054;51.572;7.372;2023-05-07T06:57:17;16.95;;;8.60;;
31424;SDS011;18054;51.572;7.372;2023-05-07T06:59:44;12.45;;;8.00;;
31424;SDS011;18054;51.572;7.372;2023-05-07T07:02:14;11.70;;;8.35;;
31424;SDS011;18054;51.572;7.372;2023-05-07T07:04:44;14.30;;;10.27;;
31424;SDS011;18054;51.572;7.372;2023-05-07T07:07:12;17.52;;;10.10;;
31424;SDS011;18054;51.572;7.372;2023-05-07T07:09:43;15.00;;;10.60;;
31424;SDS011;18054;51.572;7.372;2023-05-07T07:12:13;18.85;;;11.65;;
31424;SDS011;18054;51.572;7.372;2023-05-07T07:14:41;19.63;;;11.05;;
31424;SDS011;18054;51.572;7.372;2023-05-07T07:17:09;16.38;;;11.02;;
31424;SDS011;18054;51.572;7.372;2023-05-07T07:19:37;18.60;;;12.02;;
31424;SDS011;18054;51.572;7.372;2023-05-07T07:22:05;24.77;;;11.75;;
31424;SDS011;18054;51.572;7.372;2023-05-07T07:24:33;17.05;;;11.73;;
31424;SDS011;18054;51.572;7.372;2023-05-07T07:27:03;20.48;;;12.07;;
31424;SDS011;18054;51.572;7.372;2023-05-07T07:29:33;17.48;;;11.43;;
31424;SDS011;18054;51.572;7.372;2023-05-07T07:32:01;21.27;;;12.65;;
31424;SDS011;18054;51.572;7.372;2023-05-07T07:34:29;18.52;;;11.40;;
31424;SDS011;18054;51.572;7.372;2023-05-07T07:36:58;16.27;;;12.50;;
31424;SDS011;18054;51.572;7.372;2023-05-07T07:39:31;20.75;;;12.05;;
31424;SDS011;18054;51.572;7.372;2023-05-07T07:41:59;14.00;;;10.88;;
31424;SDS011;18054;51.572;7.372;2023-05-07T07:44:28;19.52;;;11.77;;
31424;SDS011;18054;51.572;7.372;2023-05-07T07:47:00;17.42;;;11.43;;
31424;SDS011;18054;51.572;7.372;2023-05-07T07:51:58;15.05;;;11.20;;
31424;SDS011;18054;51.572;7.372;2023-05-07T07:54:27;16.05;;;11.45;;
31424;SDS011;18054;51.572;7.372;2023-05-07T07:56:55;18.33;;;11.80;;
31424;SDS011;18054;51.572;7.372;2023-05-07T07:59:23;16.52;;;12.23;;
31424;SDS011;18054;51.572;7.372;2023-05-07T08:01:51;20.88;;;13.00;;
31424;SDS011;18054;51.572;7.372;2023-05-07T08:04:23;19.83;;;12.20;;
31424;SDS011;18054;51.572;7.372;2023-05-07T08:06:51;23.73;;;12.48;;
31424;SDS011;18054;51.572;7.372;2023-05-07T08:09:21;19.05;;;12.63;;
31424;SDS011;18054;51.572;7.372;2023-05-07T08:11:50;20.10;;;12.68;;
31424;SDS011;18054;51.572;7.372;2023-05-07T08:14:18;18.33;;;13.52;;
31424;SDS011;18054;51.572;7.372;2023-05-07T08:16:47;20.50;;;13.25;;
31424;SDS011;18054;51.572;7.372;2023-05-07T08:19:14;23.92;;;12.85;;
31424;SDS011;18054;51.572;7.372;2023-05-07T08:21:43;29.38;;;12.20;;
31424;SDS011;18054;51.572;7.372;2023-05-07T08:24:11;19.40;;;12.98;;
31424;SDS011;18054;51.572;7.372;2023-05-07T08:26:40;18.35;;;13.48;;
31424;SDS011;18054;51.572;7.372;2023-05-07T08:29:09;19.50;;;13.93;;
31424;SDS011;18054;51.572;7.372;2023-05-07T08:31:37;18.92;;;13.02;;
31424;SDS011;18054;51.572;7.372;2023-05-07T08:34:05;21.67;;;13.32;;
31424;SDS011;18054;51.572;7.372;2023-05-07T08:36:38;23.10;;;14.02;;
31424;SDS011;18054;51.572;7.372;2023-05-07T08:39:08;21.73;;;13.82;;
31424;SDS011;18054;51.572;7.372;2023-05-07T08:41:36;19.85;;;13.13;;
31424;SDS011;18054;51.572;7.372;2023-05-07T08:44:05;18.63;;;12.32;;
31424;SDS011;18054;51.572;7.372;2023-05-07T08:46:33;19.48;;;13.35;;
31424;SDS011;18054;51.572;7.372;2023-05-07T08:49:01;27.27;;;13.07;;
31424;SDS011;18054;51.572;7.372;2023-05-07T08:51:29;24.25;;;13.63;;
31424;SDS011;18054;51.572;7.372;2023-05-07T08:53:57;19.58;;;13.38;;
31424;SDS011;18054;51.572;7.372;2023-05-07T08:56:29;23.40;;;13.35;;
31424;SDS011;18054;51.572;7.372;2023-05-07T09:01:27;25.48;;;12.35;;
31424;SDS011;18054;51.572;7.372;2023-05-07T09:03:56;18.67;;;12.85;;
31424;SDS011;18054;51.572;7.372;2023-05-07T09:06:27;19.67;;;13.43;;
31424;SDS011;18054;51.572;7.372;2023-05-07T09:08:54;15.82;;;11.73;;
31424;SDS011;18054;51.572;7.372;2023-05-07T09:11:26;18.25;;;12.95;;
31424;SDS011;18054;51.572;7.372;2023-05-07T09:13:57;22.92;;;13.30;;
31424;SDS011;18054;51.572;7.372;2023-05-07T09:16:30;26.25;;;13.90;;
31424;SDS011;18054;51.572;7.372;2023-05-07T09:18:59;20.08;;;12.55;;
31424;SDS011;18054;51.572;7.372;2023-05-07T09:21:27;20.13;;;13.27;;
31424;SDS011;18054;51.572;7.372;2023-05-07T09:23:57;23.38;;;12.80;;
31424;SDS011;18054;51.572;7.372;2023-05-07T09:26:33;22.00;;;12.60;;
31424;SDS011;18054;51.572;7.372;2023-05-07T09:29:03;17.70;;;12.82;;
31424;SDS011;18054;51.572;7.372;2023-05-07T09:31:35;18.33;;;11.80;;
31424;SDS011;18054;51.572;7.372;2023-05-07T09:34:04;19.38;;;11.57;;
31424;SDS011;18054;51.572;7.372;2023-05-07T09:36:34;17.20;;;12.98;;
31424;SDS011;18054;51.572;7.372;2023-05-07T09:39:02;17.85;;;11.52;;
31424;SDS011;18054;51.572;7.372;2023-05-07T09:41:30;18.95;;;12.60;;
31424;SDS011;18054;51.572;7.372;2023-05-07T09:44:05;19.40;;;10.70;;
31424;SDS011;18054;51.572;7.372;2023-05-07T09:46:41;20.08;;;10.80;;
31424;SDS011;18054;51.572;7.372;2023-05-07T09:49:19;16.35;;;9.45;;
31424;SDS011;18054;51.572;7.372;2023-05-07T09:51:49;15.48;;;10.32;;
31424;SDS011;18054;51.572;7.372;2023-05-07T09:54:19;13.20;;;10.38;;
31424;SDS011;18054;51.572;7.372;2023-05-07T09:56:50;19.48;;;11.32;;
31424;SDS011;18054;51.572;7.372;2023-05-07T09:59:22;15.27;;;10.93;;
31424;SDS011;18054;51.572;7.372;2023-05-07T10:04:18;17.38;;;11.52;;
31424;SDS011;18054;51.572;7.372;2023-05-07T10:06:47;14.65;;;11.20;;
31424;SDS011;18054;51.572;7.372;2023-05-07T10:09:14;14.73;;;10.05;;
31424;SDS011;18054;51.572;7.372;2023-05-07T10:11:42;15.85;;;10.20;;
31424;SDS011;18054;51.572;7.372;2023-05-07T10:14:11;16.67;;;9.90;;
31424;SDS011;18054;51.572;7.372;2023-05-07T10:16:40;12.13;;;7.80;;
31424;SDS011;18054;51.572;7.372;2023-05-07T10:19:12;13.73;;;8.50;;
31424;SDS011;18054;51.572;7.372;2023-05-07T10:21:47;17.98;;;7.93;;
31424;SDS011;18054;51.572;7.372;2023-05-07T10:24:18;12.52;;;8.30;;
31424;SDS011;18054;51.572;7.372;2023-05-07T10:26:47;13.68;;;8.27;;
31424;SDS011;18054;51.572;7.372;2023-05-07T10:29:17;12.25;;;8.38;;
31424;SDS011;18054;51.572;7.372;2023-05-07T10:31:50;13.30;;;9.35;;
31424;SDS011;18054;51.572;7.372;2023-05-07T10:34:21;12.80;;;7.80;;
31424;SDS011;18054;51.572;7.372;2023-05-07T10:36:51;14.80;;;9.35;;
31424;SDS011;18054;51.572;7.372;2023-05-07T10:39:20;15.00;;;9.32;;
31424;SDS011;18054;51.572;7.372;2023-05-07T10:41:49;14.35;;;8.20;;
31424;SDS011;18054;51.572;7.372;2023-05-07T10:44:26;11.90;;;8.05;;
31424;SDS011;18054;51.572;7.372;2023-05-07T10:47:06;16.65;;;8.75;;
31424;SDS011;18054;51.572;7.372;2023-05-07T10:49:49;13.07;;;8.65;;
31424;SDS011;18054;51.572;7.372;2023-05-07T10:52:40;16.80;;;9.75;;
31424;SDS011;18054;51.572;7.372;2023-05-07T10:55:19;14.15;;;8.50;;
31424;SDS011;18054;51.572;7.372;2023-05-07T10:57:55;13.63;;;9.90;;
31424;SDS011;18054;51.572;7.372;2023-05-07T11:00:41;18.00;;;10.27;;
31424;SDS011;18054;51.572;7.372;2023-05-07T11:03:15;14.93;;;8.70;;
31424;SDS011;18054;51.572;7.372;2023-05-07T11:06:10;13.48;;;8.98;;
31424;SDS011;18054;51.572;7.372;2023-05-07T11:08:56;16.77;;;10.18;;
31424;SDS011;18054;51.572;7.372;2023-05-07T11:14:43;18.00;;;9.57;;
31424;SDS011;18054;51.572;7.372;2023-05-07T11:17:16;14.65;;;9.05;;
31424;SDS011;18054;51.572;7.372;2023-05-07T11:19:50;16.63;;;10.02;;
31424;SDS011;18054;51.572;7.372;2023-05-07T11:22:47;19.63;;;9.52;;
31424;SDS011;18054;51.572;7.372;2023-05-07T11:25:18;19.27;;;9.55;;
31424;SDS011;18054;51.572;7.372;2023-05-07T11:27:52;16.27;;;7.97;;
31424;SDS011;18054;51.572;7.372;2023-05-07T11:30:20;14.93;;;8.30;;
31424;SDS011;18054;51.572;7.372;2023-05-07T11:32:47;10.68;;;7.60;;
31424;SDS011;18054;51.572;7.372;2023-05-07T11:35:16;16.45;;;8.23;;
31424;SDS011;18054;51.572;7.372;2023-05-07T11:37:46;14.43;;;6.68;;
31424;SDS011;18054;51.572;7.372;2023-05-07T11:40:15;12.90;;;7.25;;
31424;SDS011;18054;51.572;7.372;2023-05-07T11:42:43;15.70;;;8.35;;
31424;SDS011;18054;51.572;7.372;2023-05-07T11:45:11;11.57;;;7.32;;
31424;SDS011;18054;51.572;7.372;2023-05-07T11:47:41;15.15;;;8.23;;
31424;SDS011;18054;51.572;7.372;2023-05-07T11:50:10;11.57;;;7.20;;
31424;SDS011;18054;51.572;7.372;2023-05-07T11:52:37;13.73;;;6.75;;
31424;SDS011;18054;51.572;7.372;2023-05-07T11:55:06;14.70;;;6.70;;
31424;SDS011;18054;51.572;7.372;2023-05-07T11:57:34;9.52;;;5.18;;
31424;SDS011;18054;51.572;7.372;2023-05-07T12:00:03;15.25;;;4.63;;
31424;SDS011;18054;51.572;7.372;2023-05-07T12:02:39;8.73;;;5.50;;
31424;SDS011;18054;51.572;7.372;2023-05-07T12:05:06;12.55;;;4.72;;
31424;SDS011;18054;51.572;7.372;2023-05-07T12:07:34;8.90;;;5.85;;
31424;SDS011;18054;51.572;7.372;2023-05-07T12:10:04;12.35;;;6.20;;
31424;SDS011;18054;51.572;7.372;2023-05-07T12:12:31;12.90;;;5.25;;
31424;SDS011;18054;51.572;7.372;2023-05-07T12:15:07;7.60;;;4.88;;
31424;SDS011;18054;51.572;7.372;2023-05-07T12:17:35;6.22;;;4.50;;
31424;SDS011;18054;51.572;7.372;2023-05-07T12:20:03;9.85;;;4.50;;
31424;SDS011;18054;51.572;7.372;2023-05-07T12:22:31;7.72;;;3.58;;
31424;SDS011;18054;51.572;7.372;2023-05-07T12:24:58;8.63;;;3.60;;
31424;SDS011;18054;51.572;7.372;2023-05-07T12:27:26;5.60;;;3.30;;
31424;SDS011;18054;51.572;7.372;2023-05-07T12:29:54;5.85;;;3.40;;
31424;SDS011;18054;51.572;7.372;2023-05-07T12:32:23;6.97;;;3.45;;
31424;SDS011;18054;51.572;7.372;2023-05-07T12:34:51;9.13;;;2.70;;
31424;SDS011;18054;51.572;7.372;2023-05-07T12:37:22;7.43;;;3.83;;
31424;SDS011;18054;51.572;7.372;2023-05-07T12:40:03;5.20;;;3.10;;
31424;SDS011;18054;51.572;7.372;2023-05-07T12:42:32;9.65;;;4.60;;
31424;SDS011;18054;51.572;7.372;2023-05-07T12:45:00;8.70;;;4.50;;
31424;SDS011;18054;51.572;7.372;2023-05-07T12:47:30;12.05;;;4.70;;
31424;SDS011;18054;51.572;7.372;2023-05-07T12:49:58;7.20;;;4.72;;
31424;SDS011;18054;51.572;7.372;2023-05-07T12:52:26;10.55;;;4.82;;
31424;SDS011;18054;51.572;7.372;2023-05-07T12:54:54;19.08;;;4.80;;
31424;SDS011;18054;51.572;7.372;2023-05-07T12:57:21;10.68;;;4.72;;
31424;SDS011;18054;51.572;7.372;2023-05-07T12:59:48;9.77;;;4.97;;
31424;SDS011;18054;51.572;7.372;2023-05-07T13:02:16;13.05;;;5.15;;
31424;SDS011;18054;51.572;7.372;2023-05-07T13:04:45;13.13;;;5.35;;
31424;SDS011;18054;51.572;7.372;2023-05-07T13:07:13;12.73;;;5.22;;
31424;SDS011;18054;51.572;7.372;2023-05-07T13:09:41;7.57;;;4.82;;
31424;SDS011;18054;51.572;7.372;2023-05-07T13:12:08;8.63;;;5.13;;
31424;SDS011;18054;51.572;7.372;2023-05-07T13:14:36;10.48;;;5.57;;
31424;SDS011;18054;51.572;7.372;2023-05-07T13:17:03;8.80;;;5.32;;
31424;SDS011;18054;51.572;7.372;2023-05-07T13:19:30;13.60;;;6.13;;
31424;SDS011;18054;51.572;7.372;2023-05-07T13:21:59;8.25;;;4.78;;
31424;SDS011;18054;51.572;7.372;2023-05-07T13:24:26;16.10;;;4.97;;
31424;SDS011;18054;51.572;7.372;2023-05-07T13:26:54;9.02;;;5.20;;
31424;SDS011;18054;51.572;7.372;2023-05-07T13:29:21;10.88;;;4.78;;
31424;SDS011;18054;51.572;7.372;2023-05-07T13:31:54;12.15;;;4.90;;
31424;SDS011;18054;51.572;7.372;2023-05-07T13:34:22;11.63;;;5.07;;
31424;SDS011;18054;51.572;7.372;2023-05-07T13:36:49;11.15;;;4.63;;
31424;SDS011;18054;51.572;7.372;2023-05-07T13:39:18;12.95;;;5.30;;
31424;SDS011;18054;51.572;7.372;2023-05-07T13:41:46;6.88;;;4.60;;
31424;SDS011;18054;51.572;7.372;2023-05-07T13:44:13;12.15;;;5.40;;
31424;SDS011;18054;51.572;7.372;2023-05-07T13:46:41;9.70;;;5.47;;
31424;SDS011;18054;51.572;7.372;2023-05-07T13:49:08;11.73;;;5.88;;
31424;SDS011;18054;51.572;7.372;2023-05-07T13:51:37;10.48;;;5.20;;
31424;SDS011;18054;51.572;7.372;2023-05-07T13:54:04;15.13;;;4.90;;
31424;SDS011;18054;51.572;7.372;2023-05-07T13:56:33;9.45;;;4.70;;
31424;SDS011;18054;51.572;7.372;2023-05-07T13:59:01;7.05;;;4.80;;
31424;SDS011;18054;51.572;7.372;2023-05-07T14:01:28;10.52;;;5.07;;
31424;SDS011;18054;51.572;7.372;2023-05-07T14:06:25;8.07;;;4.65;;
31424;SDS011;18054;51.572;7.372;2023-05-07T14:08:53;7.80;;;4.63;;
31424;SDS011;18054;51.572;7.372;2023-05-07T14:11:20;8.13;;;4.72;;
31424;SDS011;18054;51.572;7.372;2023-05-07T14:13:49;6.97;;;4.28;;
31424;SDS011;18054;51.572;7.372;2023-05-07T14:16:16;6.07;;;4.05;;
31424;SDS011;18054;51.572;7.372;2023-05-07T14:18:44;10.60;;;5.13;;
31424;SDS011;18054;51.572;7.372;2023-05-07T14:21:11;10.15;;;6.10;;
31424;SDS011;18054;51.572;7.372;2023-05-07T14:26:06;9.07;;;5.63;;
31424;SDS011;18054;51.572;7.372;2023-05-07T14:28:33;10.55;;;6.22;;
31424;SDS011;18054;51.572;7.372;2023-05-07T14:33:30;9.43;;;5.80;;
31424;SDS011;18054;51.572;7.372;2023-05-07T14:35:57;9.10;;;6.43;;
31424;SDS011;18054;51.572;7.372;2023-05-07T14:38:25;10.70;;;7.18;;
31424;SDS011;18054;51.572;7.372;2023-05-07T14:40:52;12.50;;;7.60;;
31424;SDS011;18054;51.572;7.372;2023-05-07T14:43:22;10.70;;;7.18;;
31424;SDS011;18054;51.572;7.372;2023-05-07T14:45:49;11.07;;;8.02;;
31424;SDS011;18054;51.572;7.372;2023-05-07T14:48:17;15.60;;;9.25;;
31424;SDS011;18054;51.572;7.372;2023-05-07T14:50:48;12.80;;;7.70;;
31424;SDS011;18054;51.572;7.372;2023-05-07T14:53:15;11.38;;;7.38;;
31424;SDS011;18054;51.572;7.372;2023-05-07T14:55:42;11.77;;;7.50;;
31424;SDS011;18054;51.572;7.372;2023-05-07T14:58:10;13.68;;;6.53;;
31424;SDS011;18054;51.572;7.372;2023-05-07T15:00:37;10.38;;;5.72;;
31424;SDS011;18054;51.572;7.372;2023-05-07T15:03:06;11.75;;;5.57;;
31424;SDS011;18054;51.572;7.372;2023-05-07T15:05:34;9.25;;;5.32;;
31424;SDS011;18054;51.572;7.372;2023-05-07T15:08:03;9.77;;;5.45;;
31424;SDS011;18054;51.572;7.372;2023-05-07T15:10:31;5.97;;;4.22;;
31424;SDS011;18054;51.572;7.372;2023-05-07T15:13:01;9.65;;;5.22;;
31424;SDS011;18054;51.572;7.372;2023-05-07T15:15:28;6.65;;;4.47;;
31424;SDS011;18054;51.572;7.372;2023-05-07T15:17:56;10.52;;;5.70;;
31424;SDS011;18054;51.572;7.372;2023-05-07T15:20:23;8.63;;;5.80;;
31424;SDS011;18054;51.572;7.372;2023-05-07T15:22:51;12.00;;;5.50;;
31424;SDS011;18054;51.572;7.372;2023-05-07T15:25:19;10.60;;;5.38;;
31424;SDS011;18054;51.572;7.372;2023-05-07T15:27:47;10.25;;;4.85;;